Time;durP1;ratioP1;P1;durP2;ratioP2;P2;SDS_P1;SDS_P2;PMS_P1;PMS_P2;Temp;Humidity;BMP_temperature;BMP_pressure;BME280_temperature;BME280_humidity;BME280_pressure;Samples;Min_cycle;Max_cycle;Signal;HPM_P1;HPM_P2
2023/02/26 00:00:27;;;;;;;3.15;0.47;;;;;;;;;;5014167;28;20202;-62
2023/02/26 00:02:53;;;;;;;0.60;0.40;;;;;;;;;;5018040;28;20170;-61
2023/02/26 00:05:19;;;;;;;0.90;0.55;;;;;;;;;;5019586;28;20197;-63
2023/02/26 00:07:45;;;;;;;1.40;0.77;;;;;;;;;;5020983;28;20176;-62
2023/02/26 00:10:12;;;;;;;0.43;0.32;;;;;;;;;;5021744;28;20170;-62
2023/02/26 00:12:38;;;;;;;2.33;0.40;;;;;;;;;;5021375;28;20215;-60
2023/02/26 00:15:05;;;;;;;1.63;0.50;;;;;;;;;;5023111;28;20194;-63
2023/02/26 00:17:34;;;;;;;0.85;0.30;;;;;;;;;;5017375;28;20259;-62
2023/02/26 00:20:02;;;;;;;1.33;0.52;;;;;;;;;;5016272;28;20202;-61
2023/02/26 00:22:28;;;;;;;1.60;0.43;;;;;;;;;;5015669;28;20166;-62
2023/02/26 00:24:54;;;;;;;1.98;0.47;;;;;;;;;;5015972;28;20170;-61
2023/02/26 00:27:20;;;;;;;1.63;0.30;;;;;;;;;;5015639;28;20491;-61
2023/02/26 00:29:46;;;;;;;1.25;0.38;;;;;;;;;;5015638;28;20209;-61
2023/02/26 00:32:12;;;;;;;1.98;0.50;;;;;;;;;;5022266;28;20174;-63
2023/02/26 00:34:39;;;;;;;1.48;0.50;;;;;;;;;;5016077;28;20166;-62
2023/02/26 00:37:27;;;;;;;0.52;0.40;;;;;;;;;;5016142;28;20503;-62
2023/02/26 00:40:08;;;;;;;2.22;0.57;;;;;;;;;;5015966;28;20193;-62
2023/02/26 00:42:34;;;;;;;2.10;0.40;;;;;;;;;;5015824;28;20165;-62
2023/02/26 00:45:01;;;;;;;0.95;0.40;;;;;;;;;;5015804;28;20162;-61
2023/02/26 00:47:35;;;;;;;0.43;0.30;;;;;;;;;;5015936;28;20174;-61
2023/02/26 00:50:05;;;;;;;2.15;0.60;;;;;;;;;;5016083;28;20223;-61
2023/02/26 00:52:33;;;;;;;3.03;0.45;;;;;;;;;;5015311;28;20170;-62
2023/02/26 00:54:59;;;;;;;0.77;0.50;;;;;;;;;;5015458;28;20174;-61
2023/02/26 00:57:25;;;;;;;0.40;0.40;;;;;;;;;;5015423;28;20170;-62
2023/02/26 00:59:51;;;;;;;0.77;0.30;;;;;;;;;;5015306;28;20268;-63
2023/02/26 01:02:17;;;;;;;1.08;0.50;;;;;;;;;;5015030;28;20166;-62
2023/02/26 01:04:44;;;;;;;0.93;0.47;;;;;;;;;;5015063;28;20637;-62
2023/02/26 01:07:10;;;;;;;0.95;0.43;;;;;;;;;;5015062;28;20163;-62
2023/02/26 01:09:37;;;;;;;2.47;0.32;;;;;;;;;;5015284;28;20188;-61
2023/02/26 01:12:07;;;;;;;2.05;0.40;;;;;;;;;;5014784;28;20239;-62
2023/02/26 01:14:33;;;;;;;1.15;0.50;;;;;;;;;;5015149;28;20179;-61
2023/02/26 01:16:59;;;;;;;1.40;0.30;;;;;;;;;;5014333;28;20174;-62
2023/02/26 01:19:35;;;;;;;1.95;0.40;;;;;;;;;;5014758;28;20170;-61
2023/02/26 01:22:09;;;;;;;0.40;0.40;;;;;;;;;;5014930;28;20259;-62
2023/02/26 01:24:36;;;;;;;2.03;0.40;;;;;;;;;;5015634;28;20190;-59
2023/02/26 01:27:02;;;;;;;0.85;0.40;;;;;;;;;;5014706;28;20628;-60
2023/02/26 01:29:28;;;;;;;1.40;0.40;;;;;;;;;;5014996;28;20167;-59
2023/02/26 01:32:25;;;;;;;2.80;0.50;;;;;;;;;;5014352;28;20672;-62
2023/02/26 01:35:04;;;;;;;1.92;0.50;;;;;;;;;;5010678;28;20186;-59
2023/02/26 01:37:42;;;;;;;1.40;0.30;;;;;;;;;;5014724;28;20189;-62
2023/02/26 01:40:14;;;;;;;1.50;0.25;;;;;;;;;;5014677;28;20211;-62
2023/02/26 01:42:43;;;;;;;2.83;0.52;;;;;;;;;;5014522;28;20180;-62
2023/02/26 01:45:17;;;;;;;0.88;0.40;;;;;;;;;;5014443;28;20205;-62
2023/02/26 01:47:46;;;;;;;1.88;0.45;;;;;;;;;;5014548;28;20175;-62
2023/02/26 01:50:17;;;;;;;2.15;0.43;;;;;;;;;;5014270;28;20186;-61
2023/02/26 01:52:51;;;;;;;0.40;0.30;;;;;;;;;;5014455;28;20197;-62
2023/02/26 01:55:21;;;;;;;2.85;0.52;;;;;;;;;;5014804;28;20174;-62
2023/02/26 01:57:48;;;;;;;0.55;0.20;;;;;;;;;;5014676;28;20185;-62
2023/02/26 02:00:15;;;;;;;2.80;0.60;;;;;;;;;;5015189;28;20221;-62
2023/02/26 02:02:41;;;;;;;2.05;0.47;;;;;;;;;;5014401;28;20175;-62
2023/02/26 02:05:29;;;;;;;1.13;0.55;;;;;;;;;;5014135;28;20194;-62
2023/02/26 02:07:55;;;;;;;1.85;0.40;;;;;;;;;;5014060;28;20189;-60
2023/02/26 02:10:21;;;;;;;1.98;0.40;;;;;;;;;;5014842;28;20193;-61
2023/02/26 02:13:07;;;;;;;0.13;0.13;;;;;;;;;;5013996;28;20231;-60
2023/02/26 02:15:45;;;;;;;1.25;0.50;;;;;;;;;;5014368;28;20154;-61
2023/02/26 02:18:18;;;;;;;1.65;0.40;;;;;;;;;;5014201;28;20166;-60
2023/02/26 02:21:13;;;;;;;1.40;0.40;;;;;;;;;;5013970;28;20186;-61
2023/02/26 02:23:48;;;;;;;1.20;0.28;;;;;;;;;;5013745;28;20159;-62
2023/02/26 02:26:32;;;;;;;1.88;0.57;;;;;;;;;;5014111;28;20166;-62
2023/02/26 02:29:17;;;;;;;0.88;0.35;;;;;;;;;;5013064;28;20197;-62
2023/02/26 02:31:55;;;;;;;2.45;0.40;;;;;;;;;;5013566;28;20170;-61
2023/02/26 02:34:23;;;;;;;2.25;0.55;;;;;;;;;;5013981;28;20562;-59
2023/02/26 02:36:52;;;;;;;2.95;0.40;;;;;;;;;;5013785;28;20166;-62
2023/02/26 02:39:27;;;;;;;2.20;0.63;;;;;;;;;;5013526;28;20169;-62
2023/02/26 02:41:56;;;;;;;0.75;0.40;;;;;;;;;;5013673;28;20201;-60
2023/02/26 02:44:23;;;;;;;0.30;0.30;;;;;;;;;;5014053;28;20170;-60
2023/02/26 02:46:51;;;;;;;1.55;0.50;;;;;;;;;;5013633;28;20428;-60
2023/02/26 02:49:23;;;;;;;4.78;0.82;;;;;;;;;;5013623;28;20213;-60
2023/02/26 02:51:52;;;;;;;1.60;0.50;;;;;;;;;;5013549;28;20587;-61
2023/02/26 02:54:22;;;;;;;2.15;0.40;;;;;;;;;;5014041;28;20585;-60
2023/02/26 02:56:55;;;;;;;1.85;0.40;;;;;;;;;;5013443;28;20181;-61
2023/02/26 02:59:21;;;;;;;0.40;0.32;;;;;;;;;;5013621;28;20170;-60
2023/02/26 03:01:49;;;;;;;0.40;0.20;;;;;;;;;;5013159;28;20637;-61
2023/02/26 03:04:15;;;;;;;2.90;0.50;;;;;;;;;;5013366;28;20190;-60
2023/02/26 03:06:42;;;;;;;0.73;0.40;;;;;;;;;;5014042;28;20174;-59
2023/02/26 03:09:09;;;;;;;2.13;0.32;;;;;;;;;;5013453;28;20167;-61
2023/02/26 03:11:36;;;;;;;0.28;0.20;;;;;;;;;;5013573;28;20597;-61
2023/02/26 03:14:03;;;;;;;3.30;0.70;;;;;;;;;;5013508;28;20189;-62
2023/02/26 03:16:44;;;;;;;1.58;0.70;;;;;;;;;;5013300;28;20194;-62
2023/02/26 03:19:13;;;;;;;1.58;0.52;;;;;;;;;;5013089;28;20274;-62
2023/02/26 03:21:42;;;;;;;2.05;0.50;;;;;;;;;;5013210;28;20208;-62
2023/02/26 03:24:14;;;;;;;2.45;0.40;;;;;;;;;;5012699;28;20557;-60
2023/02/26 03:26:43;;;;;;;1.98;0.50;;;;;;;;;;5013313;28;20550;-61
2023/02/26 03:29:20;;;;;;;2.40;1.05;;;;;;;;;;5012949;28;20198;-60
2023/02/26 03:31:58;;;;;;;1.30;0.60;;;;;;;;;;5013133;28;20456;-60
2023/02/26 03:34:35;;;;;;;1.77;0.40;;;;;;;;;;5013019;28;20212;-60
2023/02/26 03:37:04;;;;;;;2.20;0.30;;;;;;;;;;5013140;28;20162;-60
2023/02/26 03:39:43;;;;;;;1.13;0.43;;;;;;;;;;5012929;28;20170;-60
2023/02/26 03:42:17;;;;;;;2.45;0.30;;;;;;;;;;5012248;28;20661;-61
2023/02/26 03:44:47;;;;;;;3.08;0.68;;;;;;;;;;5020207;28;20212;-61
2023/02/26 03:47:15;;;;;;;0.85;0.40;;;;;;;;;;5031734;28;20154;-61
2023/02/26 03:49:45;;;;;;;1.67;0.50;;;;;;;;;;5030598;28;20194;-62
2023/02/26 03:52:11;;;;;;;0.75;0.47;;;;;;;;;;5026893;28;20231;-61
2023/02/26 03:54:50;;;;;;;1.40;0.50;;;;;;;;;;5027424;28;20347;-62
2023/02/26 03:57:16;;;;;;;2.50;0.50;;;;;;;;;;5023435;28;20185;-61
2023/02/26 03:59:42;;;;;;;2.42;0.40;;;;;;;;;;5021583;28;20209;-60
2023/02/26 04:02:14;;;;;;;3.90;0.40;;;;;;;;;;5012717;28;20699;-61
2023/02/26 04:04:52;;;;;;;2.00;0.60;;;;;;;;;;5013004;28;20265;-60
2023/02/26 04:07:19;;;;;;;0.68;0.30;;;;;;;;;;5013080;28;20201;-61
2023/02/26 04:09:47;;;;;;;1.33;0.30;;;;;;;;;;5012601;28;20166;-60
2023/02/26 04:12:13;;;;;;;0.40;0.30;;;;;;;;;;5012266;28;20273;-61
2023/02/26 04:14:39;;;;;;;1.38;0.32;;;;;;;;;;5012267;28;20175;-60
2023/02/26 04:17:05;;;;;;;3.10;0.38;;;;;;;;;;5012438;28;20260;-61
2023/02/26 04:19:31;;;;;;;0.50;0.30;;;;;;;;;;5012331;28;20170;-61
2023/02/26 04:21:57;;;;;;;1.95;0.50;;;;;;;;;;5012272;28;20523;-61
2023/02/26 04:24:23;;;;;;;2.50;0.65;;;;;;;;;;5012214;28;20173;-61
2023/02/26 04:26:49;;;;;;;1.02;0.30;;;;;;;;;;5012463;28;20173;-61
2023/02/26 04:29:15;;;;;;;0.70;0.38;;;;;;;;;;5012290;28;20588;-60
2023/02/26 04:31:41;;;;;;;1.85;0.60;;;;;;;;;;5012069;28;20177;-61
2023/02/26 04:34:07;;;;;;;1.85;0.30;;;;;;;;;;5012108;28;20315;-60
2023/02/26 04:36:33;;;;;;;1.55;0.40;;;;;;;;;;5011989;28;20177;-61
2023/02/26 04:38:59;;;;;;;1.70;0.38;;;;;;;;;;5012098;28;20589;-60
2023/02/26 04:41:25;;;;;;;0.85;0.32;;;;;;;;;;5012140;28;20288;-61
2023/02/26 04:43:51;;;;;;;2.83;0.55;;;;;;;;;;5012303;28;20235;-61
2023/02/26 04:46:17;;;;;;;1.67;0.70;;;;;;;;;;5012190;28;20162;-60
2023/02/26 04:48:43;;;;;;;2.95;0.52;;;;;;;;;;5011967;28;20260;-58
2023/02/26 04:51:09;;;;;;;1.40;0.50;;;;;;;;;;5012362;28;20232;-60
2023/02/26 04:53:35;;;;;;;1.85;0.40;;;;;;;;;;5014517;28;20185;-58
2023/02/26 04:56:01;;;;;;;1.08;0.30;;;;;;;;;;5016642;28;20178;-59
2023/02/26 04:58:27;;;;;;;0.73;0.40;;;;;;;;;;5015566;28;20170;-61
2023/02/26 05:00:54;;;;;;;1.92;1.17;;;;;;;;;;5015507;28;20198;-61
2023/02/26 05:03:20;;;;;;;1.45;0.40;;;;;;;;;;5019387;28;20199;-60
2023/02/26 05:05:46;;;;;;;1.85;0.43;;;;;;;;;;5018977;28;20231;-60
2023/02/26 05:08:12;;;;;;;1.40;0.63;;;;;;;;;;5015729;28;20555;-60
2023/02/26 05:10:40;;;;;;;2.42;0.40;;;;;;;;;;5015552;28;20174;-60
2023/02/26 05:13:06;;;;;;;2.60;0.40;;;;;;;;;;5015037;28;20627;-59
2023/02/26 05:15:32;;;;;;;3.08;0.38;;;;;;;;;;5016688;28;20198;-60
2023/02/26 05:17:58;;;;;;;0.57;0.20;;;;;;;;;;5016041;28;20278;-60
2023/02/26 05:20:24;;;;;;;0.95;0.30;;;;;;;;;;5015264;28;20202;-60
2023/02/26 05:22:52;;;;;;;0.50;0.32;;;;;;;;;;5015138;28;20257;-59
2023/02/26 05:25:18;;;;;;;1.20;0.40;;;;;;;;;;5014829;28;20178;-60
2023/02/26 05:27:44;;;;;;;0.90;0.30;;;;;;;;;;5014994;28;20231;-62
2023/02/26 05:30:12;;;;;;;1.27;0.50;;;;;;;;;;5014625;28;20177;-60
2023/02/26 05:32:38;;;;;;;0.70;0.50;;;;;;;;;;5014556;28;20620;-59
2023/02/26 05:35:04;;;;;;;1.50;0.68;;;;;;;;;;5014778;28;20166;-58
2023/02/26 05:37:30;;;;;;;1.20;0.52;;;;;;;;;;5014732;28;20167;-62
2023/02/26 05:39:56;;;;;;;1.10;0.40;;;;;;;;;;5014291;28;20178;-61
2023/02/26 05:42:23;;;;;;;1.17;0.50;;;;;;;;;;5014557;28;20307;-61
2023/02/26 05:44:49;;;;;;;0.98;0.30;;;;;;;;;;5014485;28;20170;-62
2023/02/26 05:47:15;;;;;;;3.95;0.50;;;;;;;;;;5014509;28;20171;-61
2023/02/26 05:49:41;;;;;;;4.28;0.43;;;;;;;;;;5014572;28;20163;-61
2023/02/26 05:52:07;;;;;;;1.15;0.35;;;;;;;;;;5014606;28;20499;-60
2023/02/26 05:54:33;;;;;;;1.30;0.45;;;;;;;;;;5014509;28;20178;-60
2023/02/26 05:56:59;;;;;;;2.90;0.43;;;;;;;;;;5014701;28;20209;-61
2023/02/26 05:59:25;;;;;;;1.65;0.40;;;;;;;;;;5014158;28;20178;-59
2023/02/26 06:01:51;;;;;;;0.75;0.47;;;;;;;;;;5014561;28;20614;-61
2023/02/26 06:04:17;;;;;;;0.77;0.50;;;;;;;;;;5014528;28;20206;-59
2023/02/26 06:06:43;;;;;;;2.45;0.40;;;;;;;;;;5014580;28;20166;-60
2023/02/26 06:09:09;;;;;;;0.70;0.43;;;;;;;;;;5014153;28;20212;-61
2023/02/26 06:11:37;;;;;;;0.93;0.30;;;;;;;;;;5014243;28;20182;-60
2023/02/26 06:14:03;;;;;;;0.93;0.40;;;;;;;;;;5014658;28;20175;-60
2023/02/26 06:16:29;;;;;;;3.50;0.30;;;;;;;;;;5014602;28;20174;-60
2023/02/26 06:18:55;;;;;;;1.42;0.60;;;;;;;;;;5014462;28;20170;-59
2023/02/26 06:21:21;;;;;;;1.85;0.47;;;;;;;;;;5013852;28;20667;-59
2023/02/26 06:23:47;;;;;;;1.45;0.45;;;;;;;;;;5014118;28;20181;-57
2023/02/26 06:26:13;;;;;;;1.45;0.60;;;;;;;;;;5013873;28;20170;-58
2023/02/26 06:28:38;;;;;;;3.80;0.45;;;;;;;;;;5013962;28;20174;-59
2023/02/26 06:31:05;;;;;;;2.63;0.68;;;;;;;;;;5014018;28;20174;-62
2023/02/26 06:33:32;;;;;;;0.80;0.22;;;;;;;;;;5013955;28;20170;-61
2023/02/26 06:35:59;;;;;;;1.65;0.63;;;;;;;;;;5013904;28;20175;-60
2023/02/26 06:38:26;;;;;;;1.58;0.50;;;;;;;;;;5013872;28;20174;-60
2023/02/26 06:40:52;;;;;;;3.42;0.70;;;;;;;;;;5013514;28;20636;-60
2023/02/26 06:43:18;;;;;;;1.35;0.40;;;;;;;;;;5013989;28;20182;-59
2023/02/26 06:45:45;;;;;;;0.60;0.32;;;;;;;;;;5013907;28;20239;-59
2023/02/26 06:48:11;;;;;;;1.45;0.45;;;;;;;;;;5013620;28;20162;-59
2023/02/26 06:50:37;;;;;;;2.25;0.50;;;;;;;;;;5013579;28;20178;-58
2023/02/26 06:53:03;;;;;;;1.20;0.45;;;;;;;;;;5013932;28;20608;-59
2023/02/26 06:55:31;;;;;;;1.10;0.47;;;;;;;;;;5013657;28;20186;-58
2023/02/26 06:57:57;;;;;;;5.78;0.77;;;;;;;;;;5013726;28;20167;-60
2023/02/26 07:00:24;;;;;;;0.95;0.52;;;;;;;;;;5013465;28;20527;-61
2023/02/26 07:02:50;;;;;;;1.77;0.40;;;;;;;;;;5013529;28;20170;-59
2023/02/26 07:05:16;;;;;;;0.60;0.40;;;;;;;;;;5013606;28;20221;-61
2023/02/26 07:07:42;;;;;;;0.85;0.40;;;;;;;;;;5013589;28;20542;-61
2023/02/26 07:10:09;;;;;;;0.70;0.50;;;;;;;;;;5013497;28;20170;-61
2023/02/26 07:12:37;;;;;;;1.90;0.40;;;;;;;;;;5013375;28;20265;-61
2023/02/26 07:15:03;;;;;;;1.95;0.60;;;;;;;;;;5012998;28;20170;-61
2023/02/26 07:17:29;;;;;;;2.83;0.40;;;;;;;;;;5013034;28;20502;-60
2023/02/26 07:19:55;;;;;;;0.85;0.35;;;;;;;;;;5013219;28;20158;-60
2023/02/26 07:22:21;;;;;;;1.77;0.50;;;;;;;;;;5013114;28;20194;-60
2023/02/26 07:24:48;;;;;;;3.63;0.60;;;;;;;;;;5013251;28;20173;-61
2023/02/26 07:27:14;;;;;;;3.40;0.50;;;;;;;;;;5013045;28;20163;-61
2023/02/26 07:29:40;;;;;;;4.60;0.40;;;;;;;;;;5021868;28;20154;-61
2023/02/26 07:32:06;;;;;;;0.57;0.40;;;;;;;;;;5027658;28;20210;-61
2023/02/26 07:34:32;;;;;;;1.38;0.43;;;;;;;;;;5019151;28;20178;-61
2023/02/26 07:36:58;;;;;;;1.52;0.60;;;;;;;;;;5018130;28;20175;-62
2023/02/26 07:39:25;;;;;;;1.65;1.00;;;;;;;;;;5022400;28;20174;-61
2023/02/26 07:41:51;;;;;;;2.38;0.43;;;;;;;;;;5024775;28;20194;-62
2023/02/26 07:44:17;;;;;;;0.82;0.50;;;;;;;;;;5024403;28;20174;-61
2023/02/26 07:46:43;;;;;;;1.67;0.50;;;;;;;;;;5013591;28;20231;-61
2023/02/26 07:49:09;;;;;;;0.47;0.30;;;;;;;;;;5013026;28;20249;-61
2023/02/26 07:51:36;;;;;;;1.08;0.80;;;;;;;;;;5012734;28;20220;-59
2023/02/26 07:54:02;;;;;;;4.30;0.50;;;;;;;;;;5012797;28;20174;-61
2023/02/26 07:56:28;;;;;;;2.03;0.40;;;;;;;;;;5012690;28;20186;-62
2023/02/26 07:58:54;;;;;;;2.00;0.50;;;;;;;;;;5012481;28;20182;-60
2023/02/26 08:01:20;;;;;;;2.05;0.63;;;;;;;;;;5012730;28;20273;-62
2023/02/26 08:03:46;;;;;;;1.20;0.30;;;;;;;;;;5012106;28;20170;-62
2023/02/26 08:06:12;;;;;;;1.60;0.45;;;;;;;;;;5012760;28;20158;-61
2023/02/26 08:08:39;;;;;;;1.13;0.30;;;;;;;;;;5012294;28;20568;-61
2023/02/26 08:11:04;;;;;;;1.13;0.43;;;;;;;;;;5012552;28;20166;-62
2023/02/26 08:13:30;;;;;;;4.10;0.50;;;;;;;;;;5012648;28;20228;-62
2023/02/26 08:15:56;;;;;;;2.20;0.43;;;;;;;;;;5012505;28;20182;-61
2023/02/26 08:18:23;;;;;;;1.50;0.40;;;;;;;;;;5012591;28;20169;-60
2023/02/26 08:20:51;;;;;;;0.82;0.25;;;;;;;;;;5012212;28;20659;-60
2023/02/26 08:23:17;;;;;;;2.75;0.43;;;;;;;;;;5012569;28;20175;-60
2023/02/26 08:25:43;;;;;;;0.90;0.30;;;;;;;;;;5012658;28;20634;-62
2023/02/26 08:28:09;;;;;;;2.72;0.40;;;;;;;;;;5013894;28;20589;-62
2023/02/26 08:30:35;;;;;;;2.65;0.50;;;;;;;;;;5015604;28;20615;-61
2023/02/26 08:33:01;;;;;;;0.90;0.40;;;;;;;;;;5015791;28;20517;-62
2023/02/26 08:35:26;;;;;;;2.30;0.40;;;;;;;;;;5015795;28;20490;-62
2023/02/26 08:37:53;;;;;;;1.50;0.55;;;;;;;;;;5015886;28;20174;-61
2023/02/26 08:40:19;;;;;;;2.20;0.35;;;;;;;;;;5015889;28;20210;-60
2023/02/26 08:42:45;;;;;;;0.88;0.47;;;;;;;;;;5015488;28;20188;-61
2023/02/26 08:45:12;;;;;;;1.48;0.40;;;;;;;;;;5015995;28;20173;-61
2023/02/26 08:47:40;;;;;;;1.17;0.30;;;;;;;;;;5015503;28;20319;-61
2023/02/26 08:50:06;;;;;;;0.70;0.40;;;;;;;;;;5015715;28;20174;-61
2023/02/26 08:52:32;;;;;;;1.48;0.30;;;;;;;;;;5015453;28;20159;-62
2023/02/26 08:54:58;;;;;;;0.32;0.17;;;;;;;;;;5015528;28;20170;-60
2023/02/26 08:57:24;;;;;;;2.05;0.80;;;;;;;;;;5015493;28;20503;-61
2023/02/26 08:59:50;;;;;;;1.50;0.50;;;;;;;;;;5015482;28;20194;-62
2023/02/26 09:02:16;;;;;;;0.47;0.20;;;;;;;;;;5015900;28;20201;-61
2023/02/26 09:04:42;;;;;;;1.95;0.40;;;;;;;;;;5015256;28;20223;-62
2023/02/26 09:07:08;;;;;;;1.42;0.30;;;;;;;;;;5014883;28;20170;-62
2023/02/26 09:09:34;;;;;;;1.05;0.25;;;;;;;;;;5015073;28;20182;-61
2023/02/26 09:12:00;;;;;;;0.30;0.20;;;;;;;;;;5015150;28;20238;-62
2023/02/26 09:14:26;;;;;;;1.10;0.30;;;;;;;;;;5015248;28;20511;-60
2023/02/26 09:16:52;;;;;;;1.08;0.30;;;;;;;;;;5014926;28;20221;-60
2023/02/26 09:19:18;;;;;;;0.77;0.32;;;;;;;;;;5014981;28;20174;-61
2023/02/26 09:21:44;;;;;;;1.05;0.28;;;;;;;;;;5014939;28;20489;-61
2023/02/26 09:24:10;;;;;;;0.85;0.28;;;;;;;;;;5016243;28;20166;-59
2023/02/26 09:26:37;;;;;;;0.63;0.28;;;;;;;;;;5016133;28;20682;-60
2023/02/26 09:29:03;;;;;;;2.25;0.40;;;;;;;;;;5015499;28;20198;-61
2023/02/26 09:31:29;;;;;;;2.10;0.45;;;;;;;;;;5015450;28;20316;-61
2023/02/26 09:33:55;;;;;;;2.22;0.50;;;;;;;;;;5015106;28;20272;-61
2023/02/26 09:36:21;;;;;;;0.50;0.30;;;;;;;;;;5014965;28;20171;-60
2023/02/26 09:38:47;;;;;;;1.17;0.40;;;;;;;;;;5014215;28;20174;-60
2023/02/26 09:41:21;;;;;;;2.17;0.38;;;;;;;;;;5015168;28;20309;-60
2023/02/26 09:43:59;;;;;;;1.33;0.47;;;;;;;;;;5015321;28;20671;-60
2023/02/26 09:46:44;;;;;;;2.35;0.77;;;;;;;;;;5015630;28;20159;-62
2023/02/26 09:49:32;;;;;;;0.98;0.40;;;;;;;;;;5015510;28;20202;-59
2023/02/26 09:52:01;;;;;;;3.75;0.35;;;;;;;;;;5015596;28;20521;-61
2023/02/26 09:54:30;;;;;;;1.30;0.30;;;;;;;;;;5015424;28;20178;-61
2023/02/26 09:56:58;;;;;;;1.90;0.70;;;;;;;;;;5014989;28;20215;-60
2023/02/26 09:59:33;;;;;;;1.52;0.70;;;;;;;;;;5014996;28;20178;-61
2023/02/26 10:02:13;;;;;;;2.15;0.55;;;;;;;;;;5014365;28;20186;-62
2023/02/26 10:04:50;;;;;;;2.53;0.70;;;;;;;;;;5014373;28;20194;-62
2023/02/26 10:07:18;;;;;;;1.55;0.50;;;;;;;;;;5014378;28;20158;-62
2023/02/26 10:09:44;;;;;;;0.82;0.38;;;;;;;;;;5014099;28;20667;-62
2023/02/26 10:12:16;;;;;;;1.52;0.63;;;;;;;;;;5013895;28;20218;-59
2023/02/26 10:14:58;;;;;;;1.75;0.40;;;;;;;;;;5014146;28;20174;-60
2023/02/26 10:17:33;;;;;;;2.05;0.47;;;;;;;;;;5014227;28;20185;-60
2023/02/26 10:20:01;;;;;;;0.88;0.50;;;;;;;;;;5014277;28;20235;-61
2023/02/26 10:22:39;;;;;;;2.88;0.52;;;;;;;;;;5013922;28;20190;-60
2023/02/26 10:25:16;;;;;;;1.90;0.63;;;;;;;;;;5014816;28;20170;-60
2023/02/26 10:27:48;;;;;;;1.65;0.50;;;;;;;;;;5014014;28;20227;-60
2023/02/26 10:30:24;;;;;;;1.95;0.73;;;;;;;;;;5013844;28;20166;-60
2023/02/26 10:32:55;;;;;;;1.85;0.50;;;;;;;;;;5013587;28;20593;-59
2023/02/26 10:35:24;;;;;;;0.30;0.30;;;;;;;;;;5013583;28;20151;-60
2023/02/26 10:37:51;;;;;;;3.70;0.65;;;;;;;;;;5013758;28;20181;-61
2023/02/26 10:40:23;;;;;;;2.15;0.50;;;;;;;;;;5013423;28;20159;-61
2023/02/26 10:42:49;;;;;;;3.20;0.55;;;;;;;;;;5013745;28;20170;-60
2023/02/26 10:45:33;;;;;;;2.00;0.52;;;;;;;;;;5013718;28;20167;-61
2023/02/26 10:48:08;;;;;;;1.55;0.50;;;;;;;;;;5013386;28;20593;-61
2023/02/26 10:50:34;;;;;;;2.58;0.40;;;;;;;;;;5012392;28;20645;-59
2023/02/26 10:53:01;;;;;;;1.00;0.40;;;;;;;;;;5013840;28;20163;-61
2023/02/26 10:55:43;;;;;;;1.95;0.70;;;;;;;;;;5013877;28;20189;-60
2023/02/26 10:58:12;;;;;;;0.90;0.75;;;;;;;;;;5013726;28;20174;-60
2023/02/26 11:00:39;;;;;;;1.13;0.60;;;;;;;;;;5013540;28;20208;-60
2023/02/26 11:03:06;;;;;;;1.15;0.73;;;;;;;;;;5013266;28;20182;-60
2023/02/26 11:05:33;;;;;;;1.10;0.45;;;;;;;;;;5013911;28;20178;-57
2023/02/26 11:08:03;;;;;;;0.70;0.40;;;;;;;;;;5013733;28;20223;-60
2023/02/26 11:10:41;;;;;;;3.17;0.90;;;;;;;;;;5013647;28;20224;-59
2023/02/26 11:13:07;;;;;;;3.40;1.48;;;;;;;;;;5013906;28;20170;-58
2023/02/26 11:15:33;;;;;;;1.80;0.82;;;;;;;;;;5013609;28;20628;-59
2023/02/26 11:18:00;;;;;;;2.08;0.90;;;;;;;;;;5013443;28;20174;-61
2023/02/26 11:20:31;;;;;;;1.58;0.90;;;;;;;;;;5018202;28;20205;-60
2023/02/26 11:22:59;;;;;;;2.90;0.73;;;;;;;;;;5022161;28;20178;-61
2023/02/26 11:25:27;;;;;;;0.82;0.50;;;;;;;;;;5019366;28;20691;-61
2023/02/26 11:27:59;;;;;;;0.40;0.40;;;;;;;;;;5017401;28;20386;-62
2023/02/26 11:30:26;;;;;;;2.45;0.57;;;;;;;;;;5017585;28;20161;-61
2023/02/26 11:32:56;;;;;;;1.48;0.43;;;;;;;;;;5015158;28;20167;-61
2023/02/26 11:35:25;;;;;;;3.17;0.60;;;;;;;;;;5013942;28;20167;-58
2023/02/26 11:37:58;;;;;;;0.65;0.30;;;;;;;;;;5012697;28;20289;-61
2023/02/26 11:40:31;;;;;;;0.68;0.30;;;;;;;;;;5013052;28;20213;-59
2023/02/26 11:42:58;;;;;;;1.75;0.47;;;;;;;;;;5012906;28;20166;-60
2023/02/26 11:45:24;;;;;;;1.17;0.47;;;;;;;;;;5013215;28;20273;-60
2023/02/26 11:47:57;;;;;;;1.20;0.40;;;;;;;;;;5012796;28;20227;-61
2023/02/26 11:50:24;;;;;;;2.47;0.90;;;;;;;;;;5012536;28;20583;-61
2023/02/26 11:52:55;;;;;;;1.95;0.80;;;;;;;;;;5012753;28;20170;-61
2023/02/26 11:55:26;;;;;;;2.53;0.60;;;;;;;;;;5012883;28;20158;-61
2023/02/26 11:57:53;;;;;;;1.67;0.60;;;;;;;;;;5012763;28;20159;-60
2023/02/26 12:00:20;;;;;;;1.63;0.60;;;;;;;;;;5012464;28;20182;-61
2023/02/26 12:02:46;;;;;;;2.15;0.30;;;;;;;;;;5012141;28;20158;-61
2023/02/26 12:05:15;;;;;;;0.98;0.40;;;;;;;;;;5012101;28;20588;-60
2023/02/26 12:07:41;;;;;;;1.70;0.40;;;;;;;;;;5012531;28;20174;-61
2023/02/26 12:10:27;;;;;;;1.20;0.43;;;;;;;;;;5012695;28;20173;-60
2023/02/26 12:12:57;;;;;;;0.68;0.63;;;;;;;;;;5012835;28;20154;-61
2023/02/26 12:15:35;;;;;;;1.13;0.50;;;;;;;;;;5012580;28;20182;-61
2023/02/26 12:18:07;;;;;;;2.50;0.52;;;;;;;;;;5012458;28;20162;-62
2023/02/26 12:20:39;;;;;;;2.63;0.60;;;;;;;;;;5013111;28;20250;-60
2023/02/26 12:23:11;;;;;;;0.40;0.40;;;;;;;;;;5012349;28;20170;-62
2023/02/26 12:25:53;;;;;;;1.58;0.40;;;;;;;;;;5012382;28;20542;-61
2023/02/26 12:28:25;;;;;;;1.05;0.40;;;;;;;;;;5012463;28;20210;-60
2023/02/26 12:30:57;;;;;;;0.90;0.40;;;;;;;;;;5012259;28;20224;-61
2023/02/26 12:33:29;;;;;;;2.47;0.47;;;;;;;;;;5011999;28;20571;-62
2023/02/26 12:35:58;;;;;;;1.40;0.32;;;;;;;;;;5011791;28;20188;-61
2023/02/26 12:38:27;;;;;;;1.17;0.60;;;;;;;;;;5012367;28;20170;-60
2023/02/26 12:41:06;;;;;;;2.40;0.73;;;;;;;;;;5011961;28;20205;-60
2023/02/26 12:43:49;;;;;;;1.08;0.50;;;;;;;;;;5012095;28;20161;-61
2023/02/26 12:46:41;;;;;;;0.82;0.47;;;;;;;;;;5012086;28;20174;-61
2023/02/26 12:49:20;;;;;;;2.33;0.63;;;;;;;;;;5011362;28;20292;-61
2023/02/26 12:51:54;;;;;;;2.42;0.52;;;;;;;;;;5012362;28;20605;-61
2023/02/26 12:54:21;;;;;;;1.20;0.70;;;;;;;;;;5012412;28;20162;-60
2023/02/26 12:56:59;;;;;;;1.42;0.80;;;;;;;;;;5012396;28;20194;-61
2023/02/26 12:59:25;;;;;;;1.77;0.70;;;;;;;;;;5012109;28;20154;-61
2023/02/26 13:02:09;;;;;;;1.73;0.70;;;;;;;;;;5012175;28;20186;-60
2023/02/26 13:04:35;;;;;;;2.05;0.70;;;;;;;;;;5011899;28;20209;-61
2023/02/26 13:07:09;;;;;;;1.92;0.65;;;;;;;;;;5012484;28;20492;-60
2023/02/26 13:09:58;;;;;;;1.20;0.60;;;;;;;;;;5012235;28;20324;-60
2023/02/26 13:12:27;;;;;;;1.63;0.60;;;;;;;;;;5008848;28;20178;-61
2023/02/26 13:14:58;;;;;;;3.08;1.02;;;;;;;;;;5014043;28;20232;-62
2023/02/26 13:17:28;;;;;;;1.60;0.43;;;;;;;;;;5015166;28;20197;-61
2023/02/26 13:19:55;;;;;;;1.55;0.32;;;;;;;;;;5014858;28;20170;-62
2023/02/26 13:22:33;;;;;;;0.55;0.40;;;;;;;;;;5014984;28;20255;-62
2023/02/26 13:25:04;;;;;;;0.57;0.40;;;;;;;;;;5015290;28;20166;-62
2023/02/26 13:27:34;;;;;;;0.50;0.35;;;;;;;;;;5014820;28;20253;-61
2023/02/26 13:30:03;;;;;;;1.17;0.60;;;;;;;;;;5015153;28;20209;-61
2023/02/26 13:32:31;;;;;;;1.70;0.40;;;;;;;;;;5014752;28;20584;-61
2023/02/26 13:34:59;;;;;;;1.20;0.50;;;;;;;;;;5014495;28;20174;-62
2023/02/26 13:37:28;;;;;;;1.10;0.52;;;;;;;;;;5014955;28;20243;-61
2023/02/26 13:40:00;;;;;;;2.45;0.50;;;;;;;;;;5014744;28;20497;-62
2023/02/26 13:42:32;;;;;;;0.75;0.40;;;;;;;;;;5014715;28;20255;-62
2023/02/26 13:44:58;;;;;;;0.85;0.47;;;;;;;;;;5014460;28;20590;-61
2023/02/26 13:47:24;;;;;;;1.80;0.70;;;;;;;;;;5014720;28;20170;-61
2023/02/26 13:49:55;;;;;;;1.55;0.40;;;;;;;;;;5014644;28;20173;-59
2023/02/26 13:52:28;;;;;;;0.60;0.38;;;;;;;;;;5014776;28;20163;-60
2023/02/26 13:54:55;;;;;;;1.85;0.45;;;;;;;;;;5014671;28;20166;-61
2023/02/26 13:57:24;;;;;;;2.45;0.40;;;;;;;;;;5015252;28;20217;-60
2023/02/26 14:00:03;;;;;;;2.30;0.40;;;;;;;;;;5015105;28;20227;-62
2023/02/26 14:02:34;;;;;;;1.67;0.50;;;;;;;;;;5015311;28;20284;-62
2023/02/26 14:05:00;;;;;;;1.55;0.45;;;;;;;;;;5013911;28;20206;-62
2023/02/26 14:07:44;;;;;;;0.70;0.68;;;;;;;;;;5014467;28;20170;-61
2023/02/26 14:10:15;;;;;;;3.35;0.82;;;;;;;;;;5014047;28;20620;-61
2023/02/26 14:12:44;;;;;;;2.97;1.00;;;;;;;;;;5014502;28;20218;-60
2023/02/26 14:15:13;;;;;;;2.33;0.60;;;;;;;;;;5014672;28;20166;-59
2023/02/26 14:17:49;;;;;;;1.05;0.80;;;;;;;;;;5014881;28;20510;-61
2023/02/26 14:20:21;;;;;;;1.20;0.50;;;;;;;;;;5014910;28;20185;-61
2023/02/26 14:23:06;;;;;;;0.40;0.30;;;;;;;;;;5015015;28;20181;-60
2023/02/26 14:25:34;;;;;;;1.00;0.50;;;;;;;;;;5014584;28;20170;-61
2023/02/26 14:28:19;;;;;;;0.82;0.38;;;;;;;;;;5014459;28;20170;-61
2023/02/26 14:30:50;;;;;;;0.73;0.30;;;;;;;;;;5014392;28;20173;-60
2023/02/26 14:33:18;;;;;;;0.40;0.40;;;;;;;;;;5014221;28;20259;-60
2023/02/26 14:35:49;;;;;;;0.45;0.30;;;;;;;;;;5014095;28;20174;-60
2023/02/26 14:38:21;;;;;;;0.82;0.65;;;;;;;;;;5014146;28;20504;-61
2023/02/26 14:41:05;;;;;;;0.40;0.30;;;;;;;;;;5013777;28;20205;-60
2023/02/26 14:43:31;;;;;;;0.93;0.40;;;;;;;;;;5013965;28;20299;-58
2023/02/26 14:45:57;;;;;;;1.33;0.35;;;;;;;;;;5013855;28;20221;-59
2023/02/26 14:48:24;;;;;;;1.13;0.70;;;;;;;;;;5014155;28;20569;-60
2023/02/26 14:50:56;;;;;;;1.50;0.73;;;;;;;;;;5013996;28;20181;-61
2023/02/26 14:53:34;;;;;;;0.63;0.45;;;;;;;;;;5013775;28;20170;-61
2023/02/26 14:56:13;;;;;;;0.70;0.43;;;;;;;;;;5013809;28;20180;-60